createdAt,value
2019-03-15T00:00:54.793Z,7.13
2019-03-15T00:03:27.173Z,9.53
2019-03-15T00:05:59.543Z,4.93
2019-03-15T00:08:32.009Z,6.13
2019-03-15T00:11:04.528Z,6.47
2019-03-15T00:13:36.560Z,7.97
2019-03-15T00:16:08.468Z,5.83
2019-03-15T00:18:40.883Z,7.47
2019-03-15T00:21:12.899Z,9.30
2019-03-15T00:23:44.892Z,6.60
2019-03-15T00:26:17.281Z,8.60
2019-03-15T00:28:49.664Z,4.90
2019-03-15T00:31:22.036Z,7.27
2019-03-15T00:33:54.415Z,9.03
2019-03-15T00:36:26.735Z,8.93
2019-03-15T00:38:59.142Z,7.50
2019-03-15T00:41:31.728Z,6.10
2019-03-15T00:44:04.104Z,11.30
2019-03-15T00:46:36.469Z,8.73
2019-03-15T00:49:08.850Z,7.53
2019-03-15T00:51:41.219Z,8.80
2019-03-15T00:54:13.448Z,6.97
2019-03-15T00:56:45.748Z,11.40
2019-03-15T00:59:19.252Z,8.57
2019-03-15T01:01:51.625Z,8.87
2019-03-15T01:04:23.995Z,10.17
2019-03-15T01:06:56.267Z,10.57
2019-03-15T01:09:28.742Z,11.10
2019-03-15T01:12:01.111Z,12.37
2019-03-15T01:14:33.484Z,12.60
2019-03-15T01:17:05.853Z,8.13
2019-03-15T01:19:38.227Z,10.47
2019-03-15T01:22:10.596Z,9.00
2019-03-15T01:24:42.959Z,11.33
2019-03-15T01:27:15.345Z,13.40
2019-03-15T01:29:47.708Z,10.60
2019-03-15T01:32:19.977Z,12.37
2019-03-15T01:34:52.363Z,13.23
2019-03-15T01:37:24.721Z,11.33
2019-03-15T01:39:57.104Z,10.97
2019-03-15T01:42:29.465Z,10.47
2019-03-15T01:45:01.860Z,11.33
2019-03-15T01:47:33.771Z,10.40
2019-03-15T01:50:09.457Z,12.03
2019-03-15T01:52:41.815Z,12.20
2019-03-15T01:55:14.191Z,11.73
2019-03-15T01:57:46.474Z,12.13
2019-03-15T02:00:18.848Z,10.57
2019-03-15T02:02:51.314Z,13.23
2019-03-15T02:05:23.703Z,12.53
2019-03-15T02:07:56.051Z,13.70
2019-03-15T02:10:28.837Z,14.43
2019-03-15T02:13:01.213Z,11.53
2019-03-15T02:15:33.194Z,14.00
2019-03-15T02:18:05.115Z,10.93
2019-03-15T02:20:37.502Z,13.50
2019-03-15T02:23:09.882Z,13.63
2019-03-15T02:25:42.470Z,13.03
2019-03-15T02:28:14.739Z,11.23
2019-03-15T02:30:47.193Z,14.53
2019-03-15T02:33:20.089Z,13.57
2019-03-15T02:35:52.466Z,12.63
2019-03-15T02:38:27.061Z,12.27
2019-03-15T02:41:00.547Z,12.20
2019-03-15T02:43:32.847Z,14.50
2019-03-15T02:46:05.268Z,12.53
2019-03-15T02:48:40.573Z,14.10
2019-03-15T02:51:12.929Z,12.57
2019-03-15T02:53:45.308Z,13.47
2019-03-15T02:56:17.505Z,14.50
2019-03-15T02:58:49.835Z,12.63
2019-03-15T03:01:22.220Z,13.30
2019-03-15T03:03:54.150Z,12.80
2019-03-15T03:06:26.244Z,12.53
2019-03-15T03:08:58.504Z,9.17
2019-03-15T03:11:30.497Z,9.57
2019-03-15T03:14:02.650Z,7.73
2019-03-15T03:16:37.501Z,7.00
2019-03-15T03:19:09.853Z,8.70
2019-03-15T03:21:42.362Z,7.83
2019-03-15T03:24:14.527Z,7.43
2019-03-15T03:26:46.962Z,10.13
2019-03-15T03:29:20.002Z,12.13
2019-03-15T03:31:53.958Z,13.00
2019-03-15T03:34:25.890Z,21.77
2019-03-15T03:36:58.359Z,8.30
2019-03-15T03:39:30.692Z,9.47
2019-03-15T03:42:03.044Z,11.87
2019-03-15T03:44:35.295Z,9.73
2019-03-15T03:47:07.664Z,9.37
2019-03-15T03:49:39.941Z,6.37
2019-03-15T03:52:12.320Z,8.10
2019-03-15T03:54:44.582Z,8.93
2019-03-15T03:57:18.182Z,8.07
2019-03-15T03:59:50.570Z,9.80
2019-03-15T04:02:22.549Z,7.70
2019-03-15T04:04:54.889Z,8.83
2019-03-15T04:07:27.261Z,7.27
2019-03-15T04:09:59.747Z,10.90
2019-03-15T04:12:32.118Z,5.73
2019-03-15T04:15:06.742Z,9.50
2019-03-15T04:17:40.234Z,9.73
2019-03-15T04:20:13.834Z,7.83
2019-03-15T04:22:46.211Z,9.23
2019-03-15T04:25:18.584Z,8.60
2019-03-15T04:27:50.957Z,6.50
2019-03-15T04:30:23.421Z,6.97
2019-03-15T04:32:55.916Z,11.03
2019-03-15T04:35:28.290Z,9.37
2019-03-15T04:38:00.676Z,9.13
2019-03-15T04:40:33.017Z,7.53
2019-03-15T04:43:05.196Z,6.43
2019-03-15T04:45:37.660Z,4.70
2019-03-15T04:48:10.025Z,6.87
2019-03-15T04:50:42.407Z,5.93
2019-03-15T04:53:14.387Z,8.67
2019-03-15T04:55:46.740Z,7.43
2019-03-15T04:58:19.106Z,7.97
2019-03-15T05:00:51.387Z,8.93
2019-03-15T05:03:24.781Z,4.10
2019-03-15T05:06:03.021Z,5.47
2019-03-15T05:08:31.011Z,12.37
2019-03-15T05:11:03.335Z,8.23
2019-03-15T05:13:35.695Z,4.10
2019-03-15T05:16:08.993Z,9.50
2019-03-15T05:18:41.358Z,9.63
2019-03-15T05:21:13.761Z,7.23
2019-03-15T05:23:46.101Z,9.03
2019-03-15T05:26:18.014Z,6.77
2019-03-15T05:28:50.348Z,7.50
2019-03-15T05:31:22.265Z,7.33
2019-03-15T05:33:54.681Z,7.37
2019-03-15T05:36:27.039Z,9.63
2019-03-15T05:38:59.002Z,7.83
2019-03-15T05:41:31.381Z,8.63
2019-03-15T05:44:03.743Z,6.13
2019-03-15T05:46:35.649Z,7.23
2019-03-15T05:49:07.595Z,7.27
2019-03-15T05:51:39.522Z,4.67
2019-03-15T05:54:13.135Z,7.47
2019-03-15T05:56:45.513Z,5.50
2019-03-15T05:59:17.876Z,9.30
2019-03-15T06:01:49.897Z,7.43
2019-03-15T06:04:22.321Z,5.93
2019-03-15T06:06:54.791Z,7.57
2019-03-15T06:09:27.161Z,7.90
2019-03-15T06:11:59.537Z,9.83
2019-03-15T06:14:31.812Z,8.57
2019-03-15T06:17:04.181Z,6.53
2019-03-15T06:19:36.555Z,6.80
2019-03-15T06:22:09.023Z,7.97
2019-03-15T06:28:22.094Z,5.10
2019-03-15T06:38:21.114Z,10.27
2019-03-15T06:40:53.481Z,8.30
2019-03-15T06:47:23.213Z,4.30
2019-03-15T06:49:55.593Z,12.00
2019-03-15T06:52:27.517Z,8.87
2019-03-15T06:55:00.081Z,12.23
2019-03-15T06:57:32.714Z,10.00
2019-03-15T07:00:12.866Z,12.60
2019-03-15T07:02:46.046Z,9.57
2019-03-15T07:05:18.310Z,10.77
2019-03-15T07:07:50.224Z,9.43
2019-03-15T07:10:22.653Z,8.17
2019-03-15T07:12:55.027Z,6.33
2019-03-15T07:15:27.401Z,6.30
2019-03-15T07:17:59.333Z,7.80
2019-03-15T07:20:31.730Z,7.77
2019-03-15T07:23:04.098Z,8.03
2019-03-15T07:25:36.473Z,8.27
2019-03-15T07:28:08.743Z,8.10
2019-03-15T07:30:41.113Z,5.67
2019-03-15T07:33:13.381Z,6.90
2019-03-15T07:35:45.759Z,11.17
2019-03-15T07:38:18.026Z,6.43
2019-03-15T07:40:50.500Z,7.50
2019-03-15T07:43:22.826Z,10.80
2019-03-15T07:45:55.137Z,5.97
2019-03-15T07:48:27.094Z,7.30
2019-03-15T07:50:59.489Z,5.60
2019-03-15T07:53:31.395Z,5.77
2019-03-15T07:59:40.182Z,5.00
2019-03-15T08:02:12.153Z,7.20
2019-03-15T08:04:44.074Z,6.53
2019-03-15T08:07:20.113Z,6.40
2019-03-15T08:09:51.048Z,10.33
2019-03-15T08:12:23.691Z,6.83
2019-03-15T08:14:55.600Z,6.90
2019-03-15T08:17:28.018Z,5.50
2019-03-15T08:20:00.496Z,6.70
2019-03-15T08:22:32.476Z,7.87
2019-03-15T08:25:04.821Z,7.93
2019-03-15T08:27:37.195Z,5.93
2019-03-15T08:30:14.958Z,6.30
2019-03-15T08:32:47.370Z,8.37
2019-03-15T08:35:20.247Z,17.90
2019-03-15T08:37:53.243Z,18.27
2019-03-15T08:40:26.067Z,12.53
2019-03-15T08:42:58.706Z,15.20
2019-03-15T08:45:30.618Z,11.03
2019-03-15T08:48:03.137Z,9.53
2019-03-15T08:50:35.051Z,7.30
2019-03-15T08:53:07.466Z,8.13
2019-03-15T08:55:40.174Z,7.50
2019-03-15T08:58:15.769Z,4.87
2019-03-15T09:00:46.737Z,7.77
2019-03-15T09:03:27.963Z,7.77
2019-03-15T09:05:53.124Z,8.27
2019-03-15T09:08:25.118Z,7.90
2019-03-15T09:10:57.460Z,6.37
2019-03-15T09:13:29.428Z,6.47
2019-03-15T09:16:01.344Z,3.37
2019-03-15T09:18:34.882Z,6.03
2019-03-15T09:21:07.144Z,5.57
2019-03-15T09:23:39.124Z,2.57
2019-03-15T09:26:11.476Z,4.77
2019-03-15T09:28:44.362Z,5.13
2019-03-15T09:31:16.734Z,4.27
2019-03-15T09:33:49.110Z,6.27
2019-03-15T09:36:21.473Z,3.10
2019-03-15T09:38:53.823Z,2.57
2019-03-15T09:41:31.439Z,3.83
2019-03-15T09:43:59.721Z,2.77
2019-03-15T09:46:33.123Z,3.77
2019-03-15T09:49:05.498Z,3.77
2019-03-15T09:51:37.868Z,6.67
2019-03-15T09:54:10.230Z,2.13
2019-03-15T09:56:42.502Z,2.53
2019-03-15T09:59:14.883Z,2.60
2019-03-15T10:01:47.865Z,2.27
2019-03-15T10:04:20.234Z,2.83
2019-03-15T10:06:52.615Z,2.23
2019-03-15T10:09:24.984Z,2.03
2019-03-15T10:11:57.351Z,2.20
2019-03-15T10:14:29.732Z,3.20
2019-03-15T10:17:01.986Z,1.07
2019-03-15T10:19:34.368Z,1.30
2019-03-15T10:22:06.630Z,4.57
2019-03-15T10:24:39.010Z,0.87
2019-03-15T10:27:11.266Z,3.17
2019-03-15T10:29:43.642Z,1.87
2019-03-15T10:32:15.569Z,3.57
2019-03-15T10:34:47.987Z,1.40
2019-03-15T10:37:20.354Z,1.57
2019-03-15T10:39:52.720Z,1.93
2019-03-15T10:42:24.645Z,1.93
2019-03-15T10:44:57.058Z,2.30
2019-03-15T10:47:29.334Z,2.30
2019-03-15T10:50:01.413Z,3.73
2019-03-15T10:52:33.870Z,1.63
2019-03-15T10:55:06.935Z,5.37
2019-03-15T10:57:39.226Z,1.97
2019-03-15T11:00:21.929Z,1.60
2019-03-15T11:02:53.833Z,2.70
2019-03-15T11:05:26.269Z,3.00
2019-03-15T11:08:01.008Z,4.90
2019-03-15T11:10:33.370Z,4.60
2019-03-15T11:13:05.649Z,3.63
2019-03-15T11:15:38.021Z,2.70
2019-03-15T11:18:10.394Z,2.60
2019-03-15T11:20:45.527Z,2.77
2019-03-15T11:23:17.893Z,2.30
2019-03-15T11:25:51.697Z,1.87
2019-03-15T11:28:24.069Z,4.10
2019-03-15T11:30:56.442Z,3.37
2019-03-15T11:33:28.711Z,4.13
2019-03-15T11:36:01.095Z,3.03
2019-03-15T11:38:33.014Z,2.17
2019-03-15T11:41:05.515Z,3.07
2019-03-15T11:43:37.893Z,3.13
2019-03-15T11:46:10.431Z,3.93
2019-03-15T11:48:42.741Z,2.37
2019-03-15T11:51:15.118Z,4.33
2019-03-15T11:53:47.477Z,5.80
2019-03-15T11:56:26.915Z,6.93
2019-03-15T11:58:53.761Z,2.77
2019-03-15T12:01:26.134Z,3.00
2019-03-15T12:03:58.411Z,2.57
2019-03-15T12:06:30.791Z,2.77
2019-03-15T12:09:03.155Z,4.40
2019-03-15T12:11:35.532Z,3.03
2019-03-15T12:14:07.893Z,3.27
2019-03-15T12:16:40.272Z,2.30
2019-03-15T12:19:12.643Z,3.40
2019-03-15T12:21:45.076Z,4.27
2019-03-15T12:24:17.799Z,3.43
2019-03-15T12:26:50.168Z,6.30
2019-03-15T12:29:22.532Z,4.27
2019-03-15T12:31:55.007Z,3.90
2019-03-15T12:34:27.284Z,3.63
2019-03-15T12:36:59.263Z,3.50
2019-03-15T12:39:31.621Z,5.90
2019-03-15T12:42:03.989Z,5.43
2019-03-15T12:44:36.361Z,5.03
2019-03-15T12:47:08.735Z,3.47
2019-03-15T12:49:40.999Z,5.03
2019-03-15T12:52:13.383Z,6.10
2019-03-15T12:54:45.312Z,6.17
2019-03-15T12:57:17.702Z,5.40
2019-03-15T12:59:50.089Z,4.97
2019-03-15T13:02:22.453Z,5.57
2019-03-15T13:04:54.829Z,7.97
2019-03-15T13:07:27.191Z,5.67
2019-03-15T13:09:59.470Z,4.77
2019-03-15T13:12:31.833Z,7.40
2019-03-15T13:15:04.624Z,3.53
2019-03-15T13:17:36.833Z,5.57
2019-03-15T13:20:12.432Z,8.93
2019-03-15T13:22:45.330Z,7.03
2019-03-15T13:25:18.619Z,6.00
2019-03-15T13:27:51.293Z,6.40
2019-03-15T13:30:23.198Z,8.77
2019-03-15T13:32:55.168Z,6.57
2019-03-15T13:35:27.486Z,4.80
2019-03-15T13:37:59.860Z,9.13
2019-03-15T13:40:32.846Z,8.83
2019-03-15T13:43:05.221Z,8.33
2019-03-15T13:45:37.591Z,10.00
2019-03-15T13:48:09.962Z,5.90
2019-03-15T13:50:42.527Z,7.87
2019-03-15T13:53:14.912Z,8.17
2019-03-15T13:55:47.185Z,8.80
2019-03-15T13:58:19.558Z,5.63
2019-03-15T14:00:51.924Z,7.77
2019-03-15T14:03:23.949Z,10.43
2019-03-15T14:05:56.263Z,2.50
2019-03-15T14:08:28.633Z,7.73
2019-03-15T14:11:01.007Z,7.37
2019-03-15T14:13:33.377Z,5.57
2019-03-15T14:16:05.753Z,4.43
2019-03-15T14:18:38.119Z,12.10
2019-03-15T14:21:10.493Z,8.90
2019-03-15T14:23:42.908Z,6.53
2019-03-15T14:26:15.238Z,5.73
2019-03-15T14:28:47.609Z,5.93
2019-03-15T14:31:21.638Z,25.73
2019-03-15T14:33:54.697Z,7.73
2019-03-15T14:36:27.084Z,8.13
2019-03-15T14:38:59.653Z,7.23
2019-03-15T14:41:32.327Z,10.53
2019-03-15T14:44:04.813Z,9.17
2019-03-15T14:46:37.195Z,7.00
2019-03-15T14:49:09.551Z,8.27
2019-03-15T14:51:41.927Z,7.87
2019-03-15T14:54:14.300Z,6.60
2019-03-15T14:56:46.660Z,7.73
2019-03-15T14:59:19.250Z,7.77
2019-03-15T15:01:52.133Z,6.67
2019-03-15T15:04:24.514Z,3.03
2019-03-15T15:06:56.870Z,4.47
2019-03-15T15:09:30.377Z,4.93
2019-03-15T15:12:02.737Z,5.87
2019-03-15T15:14:35.111Z,7.03
2019-03-15T15:17:07.552Z,4.67
2019-03-15T15:19:41.804Z,5.47
2019-03-15T15:22:14.231Z,8.63
2019-03-15T15:24:46.649Z,14.40
2019-03-15T15:27:19.010Z,6.10
2019-03-15T15:29:51.398Z,7.93
2019-03-15T15:32:23.872Z,8.23
2019-03-15T15:34:56.334Z,6.03
2019-03-15T15:37:28.717Z,6.77
2019-03-15T15:40:01.398Z,7.27
2019-03-15T15:42:35.194Z,8.70
2019-03-15T15:45:11.558Z,8.83
2019-03-15T15:47:43.469Z,8.13
2019-03-15T15:50:16.609Z,9.17
2019-03-15T15:52:48.888Z,7.23
2019-03-15T15:55:21.319Z,10.17
2019-03-15T15:57:53.725Z,8.63
2019-03-15T16:00:26.108Z,10.73
2019-03-15T16:02:58.479Z,10.27
2019-03-15T16:05:30.850Z,10.77
2019-03-15T16:08:03.227Z,10.17
2019-03-15T16:10:35.590Z,8.87
2019-03-15T16:13:17.151Z,10.00
2019-03-15T16:15:41.971Z,7.80
2019-03-15T16:18:13.903Z,10.23
2019-03-15T16:20:46.302Z,8.53
2019-03-15T16:23:18.581Z,5.60
2019-03-15T16:25:50.557Z,11.17
2019-03-15T16:28:31.659Z,12.37
2019-03-15T16:30:56.916Z,12.70
2019-03-15T16:33:29.298Z,11.30
2019-03-15T16:36:01.278Z,8.97
2019-03-15T16:38:33.680Z,9.43
2019-03-15T16:41:06.102Z,11.70
2019-03-15T16:43:38.471Z,11.03
2019-03-15T16:46:10.850Z,10.90
2019-03-15T16:48:43.218Z,8.50
2019-03-15T16:51:19.814Z,8.70
2019-03-15T16:53:49.135Z,11.50
2019-03-15T16:56:53.513Z,8.63
2019-03-15T16:59:25.906Z,11.23
2019-03-15T17:01:58.264Z,7.70
2019-03-15T17:04:30.526Z,4.73
2019-03-15T17:07:02.899Z,7.63
2019-03-15T17:09:35.180Z,8.43
2019-03-15T17:12:07.545Z,5.40
2019-03-15T17:14:39.810Z,4.33
2019-03-15T17:17:12.241Z,10.77
2019-03-15T17:19:44.559Z,6.43
2019-03-15T17:22:17.032Z,16.33
2019-03-15T17:24:49.416Z,6.67
2019-03-15T17:27:21.396Z,11.03
2019-03-15T17:29:53.748Z,8.17
2019-03-15T17:32:26.105Z,6.73
2019-03-15T17:34:58.046Z,5.77
2019-03-15T17:37:29.998Z,6.03
2019-03-15T17:40:02.305Z,5.93
2019-03-15T17:42:34.677Z,7.10
2019-03-15T17:45:08.897Z,5.80
2019-03-15T17:47:41.271Z,8.80
2019-03-15T17:50:25.010Z,5.20
2019-03-15T17:52:57.382Z,4.83
2019-03-15T17:55:29.642Z,2.70
2019-03-15T17:58:02.016Z,4.97
2019-03-15T18:00:53.753Z,3.43
2019-03-15T18:03:26.125Z,6.97
2019-03-15T18:05:58.383Z,4.50
2019-03-15T18:08:30.764Z,5.33
2019-03-15T18:11:03.134Z,7.73
2019-03-15T18:13:35.513Z,6.20
2019-03-15T18:16:07.973Z,3.10
2019-03-15T18:18:40.363Z,2.63
2019-03-15T18:21:12.722Z,4.33
2019-03-15T18:23:46.223Z,8.37
2019-03-15T18:26:19.769Z,10.83
2019-03-15T18:28:52.200Z,7.43
2019-03-15T18:31:24.562Z,7.07
2019-03-15T18:33:56.941Z,4.93
2019-03-15T18:36:29.313Z,4.97
2019-03-15T18:39:02.504Z,4.47
2019-03-15T18:41:34.768Z,8.37
2019-03-15T18:44:07.136Z,7.53
2019-03-15T18:46:39.056Z,7.23
2019-03-15T18:49:11.484Z,5.07
2019-03-15T18:51:43.849Z,5.27
2019-03-15T18:54:17.616Z,4.43
2019-03-15T18:56:51.345Z,4.20
2019-03-15T18:59:23.735Z,5.07
2019-03-15T19:01:56.089Z,4.73
2019-03-15T19:04:28.468Z,4.80
2019-03-15T19:07:00.842Z,5.13
2019-03-15T19:09:33.219Z,4.67
2019-03-15T19:12:05.943Z,5.73
2019-03-15T19:14:38.365Z,5.10
2019-03-15T19:17:10.289Z,7.27
2019-03-15T19:19:42.922Z,5.13
2019-03-15T19:22:14.856Z,3.23
2019-03-15T19:24:47.239Z,4.47
2019-03-15T19:27:19.623Z,7.07
2019-03-15T19:29:53.975Z,5.37
2019-03-15T19:32:25.994Z,6.60
2019-03-15T19:34:58.364Z,7.47
2019-03-15T19:37:30.632Z,5.10
2019-03-15T19:40:03.007Z,4.23
2019-03-15T19:42:34.918Z,5.97
2019-03-15T19:45:11.458Z,8.93
2019-03-15T19:47:43.812Z,7.23
2019-03-15T19:50:23.579Z,6.70
2019-03-15T19:52:55.468Z,5.30
2019-03-15T19:55:27.792Z,5.87
2019-03-15T19:58:00.154Z,11.83
2019-03-15T20:00:32.631Z,9.60
2019-03-15T20:03:04.762Z,8.10
2019-03-15T20:05:37.182Z,10.83
2019-03-15T20:08:09.551Z,10.20
2019-03-15T20:10:41.917Z,9.00
2019-03-15T20:13:14.296Z,10.43
2019-03-15T20:15:46.970Z,11.13
2019-03-15T20:18:21.142Z,9.80
2019-03-15T20:20:52.836Z,11.03
2019-03-15T20:23:25.314Z,9.20
2019-03-15T20:25:57.684Z,9.53
2019-03-15T20:28:30.052Z,8.37
2019-03-15T20:31:02.431Z,7.93
2019-03-15T20:33:34.703Z,8.50
2019-03-15T20:36:07.083Z,6.13
2019-03-15T20:38:39.447Z,5.20
2019-03-15T20:41:11.901Z,9.37
2019-03-15T20:43:44.181Z,7.80
2019-03-15T20:46:16.569Z,6.23
2019-03-15T20:48:48.518Z,5.97
2019-03-15T20:51:20.903Z,6.93
2019-03-15T20:53:53.169Z,5.27
2019-03-15T20:56:25.543Z,4.97
2019-03-15T20:58:57.447Z,6.07
2019-03-15T21:01:29.428Z,7.90
2019-03-15T21:04:01.726Z,7.63
2019-03-15T21:06:34.099Z,5.70
2019-03-15T21:09:08.824Z,6.77
2019-03-15T21:11:41.199Z,6.30
2019-03-15T21:14:13.576Z,4.30
2019-03-15T21:16:45.939Z,7.53
2019-03-15T21:19:18.212Z,6.20
2019-03-15T21:21:50.592Z,3.63
2019-03-15T21:24:22.960Z,5.17
2019-03-15T21:26:56.354Z,4.47
2019-03-15T21:29:28.623Z,5.30
2019-03-15T21:32:01.610Z,4.97
2019-03-15T21:34:33.873Z,4.80
2019-03-15T21:37:06.246Z,6.17
2019-03-15T21:39:38.625Z,5.10
2019-03-15T21:42:10.996Z,3.20
2019-03-15T21:44:43.419Z,5.60
2019-03-15T21:47:15.853Z,4.10
2019-03-15T21:49:48.221Z,3.07
2019-03-15T21:52:21.705Z,2.73
2019-03-15T21:54:53.967Z,4.33
2019-03-15T21:57:25.938Z,4.63
2019-03-15T21:59:58.315Z,5.07
2019-03-15T22:02:31.705Z,4.40
2019-03-15T22:05:03.986Z,9.67
2019-03-15T22:07:36.354Z,4.83
2019-03-15T22:10:17.094Z,3.87
2019-03-15T22:12:49.480Z,4.77
2019-03-15T22:15:21.866Z,6.80
2019-03-15T22:17:54.232Z,4.60
2019-03-15T22:20:26.162Z,3.67
2019-03-15T22:22:58.547Z,4.23
2019-03-15T22:25:31.352Z,4.93
2019-03-15T22:28:03.732Z,4.63
2019-03-15T22:30:35.641Z,4.87
2019-03-15T22:33:07.944Z,5.87
2019-03-15T22:35:40.315Z,4.63
2019-03-15T22:38:25.280Z,3.90
2019-03-15T22:40:46.607Z,6.17
2019-03-15T22:43:18.983Z,2.93
2019-03-15T22:45:51.243Z,6.37
2019-03-15T22:48:23.202Z,6.67
2019-03-15T22:50:55.488Z,3.40
2019-03-15T22:53:27.851Z,3.07
2019-03-15T22:56:00.119Z,8.87
2019-03-15T22:58:32.489Z,5.13
2019-03-15T23:01:04.866Z,3.80
2019-03-15T23:03:38.777Z,6.80
2019-03-15T23:06:11.141Z,4.90
2019-03-15T23:08:43.517Z,4.20
2019-03-15T23:11:15.788Z,7.27
2019-03-15T23:13:48.250Z,4.30
2019-03-15T23:16:20.532Z,4.67
2019-03-15T23:18:52.902Z,6.03
2019-03-15T23:21:24.809Z,4.17
2019-03-15T23:23:56.760Z,5.97
2019-03-15T23:26:29.102Z,2.93
2019-03-15T23:29:01.475Z,4.57
2019-03-15T23:31:43.546Z,4.33
2019-03-15T23:34:08.821Z,5.37
2019-03-15T23:36:41.939Z,6.87
2019-03-15T23:39:14.337Z,2.87
2019-03-15T23:41:46.609Z,2.93
2019-03-15T23:44:18.982Z,4.80
2019-03-15T23:46:51.354Z,3.87
2019-03-15T23:49:23.724Z,6.37
2019-03-15T23:51:55.987Z,6.43
2019-03-15T23:54:28.365Z,4.20
2019-03-15T23:57:00.628Z,5.67
2019-03-15T23:59:33.008Z,5.53
